Time;durP1;ratioP1;P1;durP2;ratioP2;P2;SDS_P1;SDS_P2;PMS_P1;PMS_P2;Temp;Humidity;BMP_temperature;BMP_pressure;BME280_temperature;BME280_humidity;BME280_pressure;Samples;Min_cycle;Max_cycle;Signal;HPM_P1;HPM_P2
2021/12/08 00:00:39;;;;;;;8.03;7.63;;;5.40;99.90;;;;;;5033689;28;20176;-64
2021/12/08 00:03:08;;;;;;;7.17;6.77;;;5.20;99.90;;;;;;5033449;28;20184;-64
2021/12/08 00:05:35;;;;;;;7.17;6.87;;;5.00;99.90;;;;;;5033663;28;20186;-64
2021/12/08 00:08:01;;;;;;;11.00;10.30;;;4.90;99.90;;;;;;5033641;28;20566;-64
2021/12/08 00:13:04;;;;;;;8.30;7.17;;;4.70;99.90;;;;;;5033465;28;20176;-64
2021/12/08 00:15:42;;;;;;;8.47;8.07;;;4.60;99.90;;;;;;5033283;28;20521;-64
2021/12/08 00:18:10;;;;;;;8.63;8.13;;;4.50;99.90;;;;;;5033498;28;20222;-64
2021/12/08 00:20:37;;;;;;;7.50;7.10;;;4.50;99.90;;;;;;5033471;28;20241;-64
2021/12/08 00:23:04;;;;;;;7.50;7.10;;;4.50;99.90;;;;;;5033323;28;20179;-64
2021/12/08 00:25:31;;;;;;;9.47;8.97;;;4.40;99.90;;;;;;5033619;28;20172;-64
2021/12/08 00:27:57;;;;;;;8.10;7.60;;;4.50;99.90;;;;;;5033285;28;20188;-65
2021/12/08 00:30:23;;;;;;;8.63;7.83;;;4.50;99.90;;;;;;5033236;28;20221;-64
2021/12/08 00:32:51;;;;;;;7.27;6.97;;;4.50;99.90;;;;;;5032992;28;20179;-64
2021/12/08 00:35:17;;;;;;;7.10;6.80;;;4.50;99.90;;;;;;5032889;28;20262;-64
2021/12/08 00:37:43;;;;;;;8.07;7.67;;;4.50;99.90;;;;;;5032966;28;20254;-64
2021/12/08 00:40:13;;;;;;;7.27;6.87;;;4.50;99.90;;;;;;5032662;28;20597;-64
2021/12/08 00:42:38;;;;;;;7.50;7.10;;;4.50;99.90;;;;;;5032985;28;20176;-64
2021/12/08 00:45:08;;;;;;;7.17;6.80;;;4.50;99.90;;;;;;5032814;28;20653;-64
2021/12/08 00:47:33;;;;;;;7.77;7.37;;;4.50;99.90;;;;;;5032946;28;20187;-64
2021/12/08 00:49:59;;;;;;;7.30;6.80;;;4.50;99.90;;;;;;5032642;28;20194;-64
2021/12/08 00:52:28;;;;;;;7.20;6.80;;;4.60;99.90;;;;;;5032487;28;20442;-64
2021/12/08 00:54:55;;;;;;;7.30;6.80;;;4.60;99.90;;;;;;5031706;28;20571;-64
2021/12/08 00:57:21;;;;;;;8.17;7.67;;;4.60;99.90;;;;;;5031991;28;20207;-64
2021/12/08 00:59:47;;;;;;;7.10;6.70;;;4.70;99.90;;;;;;5032073;28;20233;-64
2021/12/08 01:02:12;;;;;;;8.23;7.83;;;4.70;99.90;;;;;;5032082;28;20202;-64
2021/12/08 01:04:38;;;;;;;8.20;7.37;;;4.70;99.90;;;;;;5032483;28;20267;-64
2021/12/08 01:07:04;;;;;;;7.50;6.90;;;4.70;99.90;;;;;;5032558;28;20218;-64
2021/12/08 01:09:31;;;;;;;8.87;8.17;;;4.70;99.90;;;;;;5032511;28;20184;-64
2021/12/08 01:12:01;;;;;;;8.53;8.03;;;4.70;99.90;;;;;;5032260;28;20217;-64
2021/12/08 01:14:28;;;;;;;7.53;6.93;;;4.80;99.90;;;;;;5032246;28;20203;-64
2021/12/08 01:16:53;;;;;;;8.03;7.50;;;4.80;99.90;;;;;;5032475;28;20199;-64
2021/12/08 01:19:19;;;;;;;7.50;7.10;;;4.80;99.90;;;;;;5032463;28;20191;-64
2021/12/08 01:21:45;;;;;;;7.10;6.70;;;4.90;99.90;;;;;;5032447;28;20182;-64
2021/12/08 01:24:11;;;;;;;7.37;6.77;;;4.90;99.90;;;;;;5030934;28;20447;-64
2021/12/08 01:26:37;;;;;;;7.00;6.70;;;5.00;99.90;;;;;;5032215;28;20589;-65
2021/12/08 01:29:03;;;;;;;7.97;7.43;;;5.00;99.90;;;;;;5032367;28;20186;-64
2021/12/08 01:31:29;;;;;;;7.23;6.83;;;5.00;99.90;;;;;;5032830;28;20183;-64
2021/12/08 01:33:55;;;;;;;7.37;6.87;;;5.10;99.90;;;;;;5031917;28;20190;-64
2021/12/08 01:36:21;;;;;;;7.50;7.20;;;5.10;99.90;;;;;;5032645;28;20203;-64
2021/12/08 01:38:47;;;;;;;7.43;7.00;;;5.10;99.90;;;;;;5032010;28;20720;-64
2021/12/08 01:41:14;;;;;;;7.13;6.53;;;5.10;99.90;;;;;;5031239;28;20678;-64
2021/12/08 01:46:26;;;;;;;7.03;6.73;;;5.20;99.90;;;;;;5001372;28;20685;-64
2021/12/08 01:48:52;;;;;;;7.23;6.90;;;5.20;99.90;;;;;;5032089;28;20199;-64
2021/12/08 01:51:18;;;;;;;7.70;7.30;;;5.30;99.90;;;;;;5032005;28;20176;-64
2021/12/08 01:53:47;;;;;;;7.20;6.90;;;5.30;99.90;;;;;;5031402;28;20172;-64
2021/12/08 01:56:14;;;;;;;6.97;6.67;;;5.30;99.90;;;;;;5031536;28;20207;-64
2021/12/08 01:58:40;;;;;;;7.00;6.70;;;5.30;99.90;;;;;;5031513;28;20191;-65
2021/12/08 02:01:08;;;;;;;7.10;6.70;;;5.40;99.90;;;;;;5031886;28;20278;-64
2021/12/08 02:03:36;;;;;;;6.80;6.50;;;5.40;99.90;;;;;;5031692;28;20258;-64
2021/12/08 02:06:03;;;;;;;7.10;6.60;;;5.40;99.90;;;;;;5030102;28;20191;-64
2021/12/08 02:08:29;;;;;;;7.00;6.70;;;5.40;99.90;;;;;;5031690;28;20566;-64
2021/12/08 02:10:56;;;;;;;7.17;6.87;;;5.40;99.90;;;;;;5031430;28;20188;-64
2021/12/08 02:13:22;;;;;;;7.30;6.90;;;5.40;99.90;;;;;;5031457;28;20175;-64
2021/12/08 02:15:48;;;;;;;6.60;6.30;;;5.40;99.90;;;;;;5031157;28;20183;-64
2021/12/08 02:18:15;;;;;;;7.13;6.73;;;5.40;99.90;;;;;;5031390;28;20198;-64
2021/12/08 02:20:46;;;;;;;6.80;6.50;;;5.40;99.90;;;;;;5031381;28;20207;-64
2021/12/08 02:23:12;;;;;;;6.20;6.00;;;5.40;99.90;;;;;;5030623;28;20672;-64
2021/12/08 02:25:38;;;;;;;7.40;7.00;;;5.40;99.90;;;;;;5031340;28;20184;-64
2021/12/08 02:28:07;;;;;;;7.10;6.53;;;5.40;99.90;;;;;;5031018;28;20196;-64
2021/12/08 02:30:39;;;;;;;6.70;6.40;;;5.30;99.90;;;;;;5029794;28;20191;-64
2021/12/08 02:49:21;;;;;;;7.73;7.20;;;5.10;99.90;;;;;;5040219;28;20863;-66
2021/12/08 02:51:48;;;;;;;7.83;7.50;;;5.10;99.90;;;;;;5018306;28;20186;-66
2021/12/08 02:54:14;;;;;;;8.07;7.67;;;5.10;99.90;;;;;;5050633;28;20179;-66
2021/12/08 02:56:40;;;;;;;7.80;7.43;;;5.10;99.90;;;;;;5046607;28;20206;-66
2021/12/08 02:59:06;;;;;;;7.80;7.40;;;5.10;99.90;;;;;;5031106;28;20188;-66
2021/12/08 03:01:32;;;;;;;7.13;6.83;;;5.10;99.90;;;;;;5032244;28;20166;-66
2021/12/08 03:03:58;;;;;;;7.20;6.90;;;5.10;99.90;;;;;;5030715;28;20234;-66
2021/12/08 03:06:23;;;;;;;7.10;6.70;;;5.00;99.90;;;;;;5031456;28;20176;-66
2021/12/08 03:08:49;;;;;;;7.83;7.23;;;5.10;99.90;;;;;;5050898;28;20206;-66
2021/12/08 03:11:16;;;;;;;7.37;6.90;;;5.00;99.90;;;;;;5050981;28;20264;-67
2021/12/08 03:13:57;;;;;;;7.90;7.50;;;5.00;99.90;;;;;;5049879;28;20186;-66
2021/12/08 03:16:23;;;;;;;8.13;7.73;;;5.00;99.90;;;;;;5050847;28;20207;-66
2021/12/08 03:18:48;;;;;;;7.93;7.57;;;5.10;99.90;;;;;;5033840;28;20195;-67
2021/12/08 03:21:14;;;;;;;8.37;7.77;;;5.00;99.90;;;;;;5049517;28;20636;-66
2021/12/08 03:23:54;;;;;;;7.20;6.90;;;5.00;99.90;;;;;;5054470;28;20607;-66
2021/12/08 03:26:27;;;;;;;6.93;6.60;;;5.00;99.90;;;;;;5039307;28;20182;-66
2021/12/08 03:29:01;;;;;;;7.37;7.07;;;5.00;99.90;;;;;;5034493;28;20191;-65
2021/12/08 03:31:36;;;;;;;7.57;7.17;;;5.00;99.90;;;;;;5050114;28;20599;-66
2021/12/08 03:34:02;;;;;;;7.30;7.00;;;5.00;99.90;;;;;;5053977;28;20531;-66
2021/12/08 03:36:27;;;;;;;7.60;7.20;;;5.00;99.90;;;;;;5038921;28;20215;-66
2021/12/08 03:38:53;;;;;;;7.10;6.80;;;5.10;99.90;;;;;;5033922;28;20302;-66
2021/12/08 03:41:19;;;;;;;7.23;6.90;;;5.00;99.90;;;;;;5047634;28;20201;-66
2021/12/08 03:43:45;;;;;;;7.30;6.90;;;5.00;99.90;;;;;;5053860;28;20171;-67
2021/12/08 03:46:13;;;;;;;7.30;7.00;;;5.00;99.90;;;;;;5042123;28;20679;-66
2021/12/08 03:48:48;;;;;;;7.40;7.10;;;5.00;99.90;;;;;;5034158;28;20277;-66
2021/12/08 03:51:17;;;;;;;8.07;7.53;;;5.00;99.90;;;;;;5045739;28;20178;-66
2021/12/08 03:53:43;;;;;;;7.10;6.80;;;5.00;99.90;;;;;;5054098;28;20178;-66
2021/12/08 03:56:09;;;;;;;8.20;7.80;;;5.00;99.90;;;;;;5043204;28;20532;-67
2021/12/08 03:58:35;;;;;;;8.00;7.53;;;5.00;99.90;;;;;;5034079;28;20187;-66
2021/12/08 04:01:03;;;;;;;7.50;7.20;;;5.00;99.90;;;;;;5042526;28;20534;-66
2021/12/08 04:03:31;;;;;;;7.40;7.00;;;5.00;99.90;;;;;;5048419;28;20257;-66
2021/12/08 04:06:01;;;;;;;7.67;7.20;;;5.10;99.90;;;;;;5033816;28;20660;-66
2021/12/08 04:08:45;;;;;;;7.53;7.13;;;5.10;99.90;;;;;;5037474;28;20281;-66
2021/12/08 04:11:13;;;;;;;7.80;7.50;;;5.10;99.90;;;;;;5053800;28;20178;-66
2021/12/08 04:13:48;;;;;;;8.23;7.73;;;5.20;99.90;;;;;;5048038;28;20180;-67
2021/12/08 04:16:16;;;;;;;8.00;7.60;;;5.20;99.90;;;;;;5033303;28;20217;-66
2021/12/08 04:18:42;;;;;;;8.10;7.70;;;5.30;99.90;;;;;;5038443;28;20389;-66
2021/12/08 04:21:09;;;;;;;8.60;7.90;;;5.40;99.90;;;;;;5053565;28;20179;-66
2021/12/08 04:23:38;;;;;;;7.83;7.50;;;5.40;99.90;;;;;;5051789;28;20648;-66
2021/12/08 04:26:12;;;;;;;7.83;7.43;;;5.50;99.90;;;;;;5034288;28;20175;-66
2021/12/08 04:28:39;;;;;;;7.93;7.53;;;5.50;99.90;;;;;;5045073;28;20199;-65
2021/12/08 04:31:08;;;;;;;8.00;7.30;;;5.60;99.90;;;;;;5033494;28;20671;-66
2021/12/08 04:33:35;;;;;;;7.20;6.87;;;5.60;99.90;;;;;;5052381;28;20612;-66
2021/12/08 04:36:03;;;;;;;7.43;7.03;;;5.60;99.90;;;;;;5052165;28;20199;-65
2021/12/08 04:38:35;;;;;;;7.60;7.00;;;5.50;99.90;;;;;;5034867;28;20215;-66
2021/12/08 04:41:07;;;;;;;8.13;7.43;;;5.50;99.90;;;;;;5033361;28;20217;-66
2021/12/08 04:44:20;;;;;;;7.70;7.30;;;5.50;99.90;;;;;;5051012;28;20594;-66
2021/12/08 05:08:41;;;;;;;8.37;7.87;;;5.30;99.90;;;;;;5032894;28;20202;-66
2021/12/08 05:11:32;;;;;;;8.27;7.53;;;5.20;99.90;;;;;;5034799;28;20321;-66
2021/12/08 05:14:44;;;;;;;8.93;8.33;;;5.10;99.90;;;;;;5032294;28;20176;-66
2021/12/08 05:17:16;;;;;;;7.60;7.20;;;5.10;99.90;;;;;;4951927;29;20216;-67
2021/12/08 05:19:44;;;;;;;7.60;7.20;;;5.00;99.90;;;;;;4952399;29;20185;-66
2021/12/08 05:22:22;;;;;;;8.47;7.97;;;4.90;99.90;;;;;;5006743;28;20187;-67
2021/12/08 05:24:53;;;;;;;7.90;7.50;;;4.90;99.90;;;;;;5032709;28;20241;-65
2021/12/08 05:27:25;;;;;;;8.90;8.30;;;4.80;99.90;;;;;;5012902;28;20678;-65
2021/12/08 05:29:59;;;;;;;7.83;7.43;;;4.80;99.90;;;;;;5030768;28;20567;-64
2021/12/08 05:32:25;;;;;;;8.83;8.33;;;4.80;99.90;;;;;;5032062;28;20199;-68
2021/12/08 05:34:51;;;;;;;7.97;7.53;;;4.80;99.90;;;;;;5048581;28;20183;-65
2021/12/08 05:37:20;;;;;;;8.43;7.83;;;4.80;99.90;;;;;;5051608;28;20206;-65
2021/12/08 05:39:45;;;;;;;8.40;7.70;;;4.80;99.90;;;;;;5036468;28;20233;-67
2021/12/08 05:42:25;;;;;;;9.17;8.57;;;4.80;99.90;;;;;;5031610;28;20176;-67
2021/12/08 05:44:51;;;;;;;10.20;9.67;;;4.80;99.90;;;;;;5043422;28;20174;-66
2021/12/08 05:47:22;;;;;;;8.67;8.13;;;4.80;99.90;;;;;;5032912;28;20179;-67
2021/12/08 05:49:49;;;;;;;9.40;8.73;;;4.80;99.90;;;;;;5032043;28;20171;-67
2021/12/08 05:52:15;;;;;;;8.30;7.80;;;4.70;99.90;;;;;;5044779;28;20282;-65
2021/12/08 05:54:44;;;;;;;9.00;8.17;;;4.70;99.90;;;;;;5052066;28;20174;-66
2021/12/08 05:57:19;;;;;;;8.00;7.50;;;4.70;99.90;;;;;;5038942;28;20261;-67
2021/12/08 05:59:47;;;;;;;7.83;7.43;;;4.70;99.90;;;;;;5014245;28;20710;-66
2021/12/08 06:02:31;;;;;;;8.87;8.07;;;4.70;99.90;;;;;;5025325;28;20178;-66
2021/12/08 06:04:57;;;;;;;9.47;8.87;;;4.70;99.90;;;;;;5051783;28;20406;-66
2021/12/08 06:07:23;;;;;;;10.37;9.50;;;4.60;99.90;;;;;;5037588;28;20180;-66
2021/12/08 06:09:55;;;;;;;9.17;8.53;;;4.70;99.90;;;;;;5031645;28;20706;-66
2021/12/08 06:12:21;;;;;;;9.23;8.73;;;4.70;99.90;;;;;;5043210;28;20190;-66
2021/12/08 06:14:53;;;;;;;8.27;7.77;;;4.70;99.90;;;;;;5033056;28;20767;-66
2021/12/08 06:17:19;;;;;;;8.87;8.17;;;4.70;99.90;;;;;;5038659;28;20741;-65
2021/12/08 06:19:47;;;;;;;9.63;8.83;;;4.70;99.90;;;;;;5031664;28;20190;-66
2021/12/08 06:22:14;;;;;;;9.13;8.37;;;4.70;99.90;;;;;;5030623;28;20206;-66
2021/12/08 06:24:41;;;;;;;9.27;8.67;;;4.70;99.90;;;;;;5037098;28;20182;-66
2021/12/08 06:27:08;;;;;;;8.67;8.03;;;4.70;99.90;;;;;;5033439;28;20269;-66
2021/12/08 06:29:34;;;;;;;9.17;8.57;;;4.70;99.90;;;;;;5049884;28;20245;-66
2021/12/08 06:32:05;;;;;;;7.90;7.50;;;4.70;99.90;;;;;;5050280;28;20174;-66
2021/12/08 06:34:31;;;;;;;10.87;10.27;;;4.80;99.90;;;;;;5047845;28;20759;-66
2021/12/08 06:37:12;;;;;;;10.07;9.27;;;4.80;99.90;;;;;;5031408;28;20571;-66
2021/12/08 06:39:55;;;;;;;8.60;8.00;;;4.90;99.90;;;;;;5034878;28;20182;-66
2021/12/08 06:42:24;;;;;;;8.77;8.17;;;4.90;99.90;;;;;;5050998;28;20261;-66
2021/12/08 06:44:52;;;;;;;8.63;7.93;;;4.90;99.90;;;;;;5045592;28;20709;-66
2021/12/08 06:47:22;;;;;;;8.93;8.13;;;4.90;99.90;;;;;;5031041;28;20649;-66
2021/12/08 06:49:49;;;;;;;8.93;8.13;;;4.80;99.90;;;;;;5034786;28;20183;-66
2021/12/08 06:52:28;;;;;;;8.63;8.03;;;4.80;99.90;;;;;;5053407;28;20699;-66
2021/12/08 06:55:05;;;;;;;9.23;8.63;;;4.80;99.90;;;;;;5035322;28;20306;-66
2021/12/08 06:57:38;;;;;;;8.70;8.20;;;4.80;99.90;;;;;;5035025;28;20214;-66
2021/12/08 07:00:23;;;;;;;8.60;8.10;;;4.80;99.90;;;;;;5055168;28;20163;-65
2021/12/08 07:03:17;;;;;;;9.83;9.03;;;4.70;99.90;;;;;;5051782;28;20216;-66
2021/12/08 07:06:05;;;;;;;8.57;8.03;;;4.70;99.90;;;;;;5034512;28;20191;-66
2021/12/08 07:08:34;;;;;;;7.90;7.20;;;4.70;99.90;;;;;;5042734;28;20210;-66
2021/12/08 07:11:00;;;;;;;8.50;8.00;;;4.70;99.90;;;;;;5054736;28;20639;-66
2021/12/08 07:13:29;;;;;;;8.57;7.97;;;4.60;99.90;;;;;;5047749;28;20175;-66
2021/12/08 07:16:08;;;;;;;9.00;8.23;;;4.60;99.90;;;;;;5014957;28;20550;-66
2021/12/08 07:18:52;;;;;;;9.37;8.53;;;4.60;99.90;;;;;;5022572;28;20211;-66
2021/12/08 07:21:21;;;;;;;8.60;7.90;;;4.50;99.90;;;;;;5047565;28;20206;-66
2021/12/08 07:23:58;;;;;;;8.13;7.63;;;4.40;99.90;;;;;;5016731;28;20182;-66
2021/12/08 07:26:27;;;;;;;9.07;8.47;;;4.30;99.90;;;;;;5021786;28;20190;-66
2021/12/08 07:28:55;;;;;;;12.67;10.20;;;4.30;99.90;;;;;;5036364;28;20347;-66
2021/12/08 07:31:36;;;;;;;11.13;9.97;;;4.30;99.90;;;;;;5031598;28;20179;-66
2021/12/08 07:34:07;;;;;;;10.13;9.23;;;4.30;99.90;;;;;;5033945;28;20190;-66
2021/12/08 07:36:38;;;;;;;9.17;8.47;;;4.30;99.90;;;;;;5039732;28;20213;-65
2021/12/08 07:39:12;;;;;;;9.23;8.63;;;4.30;99.90;;;;;;5036160;28;20284;-66
2021/12/08 07:41:42;;;;;;;9.17;8.33;;;4.30;99.90;;;;;;5048406;28;20240;-65
2021/12/08 07:44:13;;;;;;;8.33;7.63;;;4.30;99.90;;;;;;5033885;28;20604;-65
2021/12/08 07:46:52;;;;;;;9.13;8.43;;;4.40;99.90;;;;;;5034599;28;20563;-66
2021/12/08 07:49:29;;;;;;;10.40;9.40;;;4.40;99.90;;;;;;5037125;28;20259;-65
2021/12/08 07:51:59;;;;;;;10.00;9.07;;;4.40;99.90;;;;;;5051680;28;20166;-65
2021/12/08 07:54:26;;;;;;;10.23;9.53;;;4.40;99.90;;;;;;5048915;28;20179;-65
2021/12/08 07:56:57;;;;;;;9.00;8.13;;;4.50;99.90;;;;;;5033946;28;20199;-65
2021/12/08 07:59:23;;;;;;;9.40;8.50;;;4.50;99.90;;;;;;5036514;28;20653;-65
2021/12/08 08:01:55;;;;;;;10.00;9.20;;;4.60;99.90;;;;;;5033731;28;20230;-65
2021/12/08 08:04:25;;;;;;;9.60;8.80;;;4.60;99.90;;;;;;5035849;28;20198;-65
2021/12/08 08:06:55;;;;;;;10.13;9.10;;;4.60;99.90;;;;;;5035980;28;20544;-65
2021/12/08 08:09:28;;;;;;;9.50;8.83;;;4.60;99.90;;;;;;5049842;28;20206;-65
2021/12/08 08:11:58;;;;;;;9.67;8.70;;;4.70;99.90;;;;;;5033180;28;20172;-65
2021/12/08 08:14:29;;;;;;;9.17;8.30;;;4.70;99.90;;;;;;5035288;28;20250;-65
2021/12/08 08:16:57;;;;;;;9.30;8.30;;;4.70;99.90;;;;;;5052975;28;20298;-65
2021/12/08 08:19:29;;;;;;;8.70;8.10;;;4.80;99.90;;;;;;5034581;28;20597;-65
2021/12/08 08:22:07;;;;;;;9.40;8.57;;;4.80;99.90;;;;;;5044904;28;20178;-65
2021/12/08 08:24:34;;;;;;;8.83;8.23;;;4.80;99.90;;;;;;5053686;28;20319;-65
2021/12/08 08:27:03;;;;;;;9.90;9.20;;;4.90;99.90;;;;;;5038889;28;20176;-65
2021/12/08 08:29:29;;;;;;;14.87;9.30;;;4.90;99.90;;;;;;5037019;28;20195;-65
2021/12/08 08:32:25;;;;;;;8.67;8.17;;;4.90;99.90;;;;;;5035464;28;20179;-66
2021/12/08 08:35:14;;;;;;;9.33;8.63;;;4.90;99.90;;;;;;5046430;28;20640;-65
2021/12/08 08:37:40;;;;;;;8.93;8.23;;;5.00;99.90;;;;;;5033736;28;20210;-66
2021/12/08 08:40:14;;;;;;;9.10;8.33;;;5.00;99.90;;;;;;5041384;28;20636;-66
2021/12/08 08:42:41;;;;;;;9.90;8.97;;;5.10;99.90;;;;;;5053067;28;20163;-67
2021/12/08 08:45:30;;;;;;;8.83;8.10;;;5.10;99.90;;;;;;5045227;28;20675;-67
2021/12/08 08:48:01;;;;;;;9.67;8.93;;;5.20;99.90;;;;;;5033066;28;20275;-67
2021/12/08 08:50:55;;;;;;;7.70;7.20;;;5.30;99.90;;;;;;5039057;28;20233;-66
2021/12/08 08:53:26;;;;;;;8.73;7.53;;;5.30;99.90;;;;;;5031758;28;20720;-66
2021/12/08 08:55:57;;;;;;;9.10;8.20;;;5.40;99.90;;;;;;5045037;28;20179;-66
2021/12/08 08:58:24;;;;;;;9.57;8.87;;;5.40;99.90;;;;;;5051543;28;20223;-67
2021/12/08 09:00:57;;;;;;;8.10;7.57;;;5.40;99.90;;;;;;5040837;28;20176;-66
2021/12/08 09:03:25;;;;;;;7.37;6.87;;;5.50;99.90;;;;;;5032653;28;20160;-65
2021/12/08 09:05:56;;;;;;;7.60;7.03;;;5.60;99.90;;;;;;5043467;28;20506;-65
2021/12/08 09:08:29;;;;;;;9.37;7.67;;;5.60;99.90;;;;;;5052484;28;20265;-64
2021/12/08 09:11:10;;;;;;;8.97;8.17;;;5.60;99.90;;;;;;5050948;28;20175;-66
2021/12/08 09:13:43;;;;;;;7.97;7.37;;;5.70;99.90;;;;;;5042996;28;20206;-65
2021/12/08 09:16:20;;;;;;;7.87;7.27;;;5.70;99.90;;;;;;5031349;28;20287;-69
2021/12/08 09:18:59;;;;;;;8.30;7.10;;;5.80;99.90;;;;;;5041956;28;20194;-66
2021/12/08 09:21:45;;;;;;;9.07;8.33;;;5.80;99.90;;;;;;5034633;28;20175;-66
2021/12/08 09:24:26;;;;;;;7.80;7.40;;;5.90;99.90;;;;;;5048763;28;20583;-67
2021/12/08 09:26:55;;;;;;;10.60;9.73;;;5.80;99.90;;;;;;5051044;28;20665;-65
2021/12/08 09:29:31;;;;;;;7.87;7.37;;;5.90;99.90;;;;;;5038644;28;20736;-66
2021/12/08 09:32:05;;;;;;;8.50;8.00;;;6.00;99.90;;;;;;5042151;28;20523;-66
2021/12/08 09:34:38;;;;;;;9.93;7.30;;;6.00;99.90;;;;;;5037411;28;20202;-66
2021/12/08 09:37:11;;;;;;;7.67;7.20;;;6.00;99.90;;;;;;5032264;28;20203;-66
2021/12/08 09:39:42;;;;;;;7.93;7.27;;;6.10;99.90;;;;;;5042487;28;20647;-66
2021/12/08 09:42:17;;;;;;;7.33;6.83;;;6.20;99.90;;;;;;5051679;28;20171;-66
2021/12/08 09:44:50;;;;;;;8.23;7.43;;;6.30;99.90;;;;;;5044656;28;20597;-67
2021/12/08 09:47:16;;;;;;;9.17;8.57;;;6.40;99.90;;;;;;5033180;28;20237;-66
2021/12/08 09:49:47;;;;;;;9.13;8.33;;;6.50;99.90;;;;;;5051950;28;20171;-66
2021/12/08 09:52:15;;;;;;;9.63;6.80;;;6.60;99.90;;;;;;5050921;28;20186;-66
2021/12/08 09:54:41;;;;;;;8.00;7.50;;;6.70;99.90;;;;;;5038672;28;20183;-66
2021/12/08 09:57:11;;;;;;;7.70;7.20;;;6.70;99.90;;;;;;5038792;28;20256;-66
2021/12/08 09:59:45;;;;;;;8.77;7.93;;;6.80;99.90;;;;;;5045123;28;20262;-66
2021/12/08 10:02:12;;;;;;;8.23;7.50;;;6.80;99.90;;;;;;5024873;28;20178;-66
2021/12/08 10:04:38;;;;;;;7.43;6.93;;;7.00;99.90;;;;;;5034221;28;20171;-65
2021/12/08 10:07:05;;;;;;;10.23;7.10;;;7.00;99.90;;;;;;5034718;28;20574;-66
2021/12/08 10:09:32;;;;;;;7.90;7.20;;;7.10;99.90;;;;;;5031774;28;20175;-68
2021/12/08 10:11:58;;;;;;;7.57;7.07;;;7.20;99.90;;;;;;5046054;28;20189;-66
2021/12/08 10:14:24;;;;;;;7.73;7.17;;;7.20;99.90;;;;;;5051376;28;20632;-68
2021/12/08 10:16:53;;;;;;;8.50;7.83;;;7.20;99.90;;;;;;5038245;28;20191;-65
2021/12/08 10:19:19;;;;;;;8.17;7.37;;;7.20;99.90;;;;;;5031692;28;20183;-66
2021/12/08 10:21:46;;;;;;;7.60;6.87;;;7.20;99.90;;;;;;5046261;28;20179;-68
2021/12/08 10:24:28;;;;;;;7.80;7.17;;;7.20;99.90;;;;;;5014695;28;20666;-66
2021/12/08 10:27:05;;;;;;;7.03;6.53;;;7.20;99.90;;;;;;5019606;28;20664;-65
2021/12/08 10:29:32;;;;;;;7.63;7.00;;;7.20;99.90;;;;;;5035283;28;20170;-66
2021/12/08 10:32:00;;;;;;;7.23;6.83;;;7.20;99.90;;;;;;5030892;28;20182;-65
2021/12/08 10:34:36;;;;;;;7.87;7.33;;;7.20;99.90;;;;;;5030479;28;20167;-65
2021/12/08 10:37:02;;;;;;;8.47;7.30;;;7.20;99.90;;;;;;5033152;28;20203;-65
2021/12/08 10:39:42;;;;;;;7.80;7.20;;;7.30;99.90;;;;;;5051074;28;20205;-65
2021/12/08 10:42:26;;;;;;;7.70;7.00;;;7.30;99.90;;;;;;5044510;28;20175;-66
2021/12/08 10:45:11;;;;;;;8.23;7.53;;;7.40;99.90;;;;;;5031073;28;20168;-66
2021/12/08 10:47:50;;;;;;;8.13;7.50;;;7.40;99.90;;;;;;5040652;28;20209;-64
2021/12/08 10:56:14;;;;;;;7.93;7.20;;;7.60;99.90;;;;;;5030906;28;20183;-64
2021/12/08 10:58:43;;;;;;;8.00;7.47;;;7.60;99.90;;;;;;5047389;28;20706;-64
2021/12/08 11:01:16;;;;;;;8.27;7.57;;;7.60;99.90;;;;;;5050809;28;20173;-64
2021/12/08 11:03:43;;;;;;;7.70;7.03;;;7.60;99.90;;;;;;5034108;28;20271;-65
2021/12/08 11:06:13;;;;;;;7.53;7.00;;;7.70;99.90;;;;;;5030699;28;20207;-65
2021/12/08 11:08:40;;;;;;;6.70;6.23;;;7.70;99.90;;;;;;5045862;28;20281;-65
2021/12/08 11:11:11;;;;;;;7.27;6.73;;;7.70;99.90;;;;;;5032790;28;20179;-65
2021/12/08 11:13:45;;;;;;;7.07;6.57;;;7.70;99.90;;;;;;5035995;28;20180;-65
2021/12/08 11:16:15;;;;;;;7.73;6.90;;;7.70;99.90;;;;;;5030753;28;20174;-64
2021/12/08 11:18:45;;;;;;;7.13;6.63;;;7.70;99.90;;;;;;5044868;28;20203;-65
2021/12/08 11:21:24;;;;;;;7.00;6.37;;;7.70;99.90;;;;;;5039700;28;20527;-65
2021/12/08 11:23:52;;;;;;;6.80;6.40;;;7.80;99.90;;;;;;5012788;28;20178;-64
2021/12/08 11:26:26;;;;;;;7.77;7.30;;;7.80;99.90;;;;;;5039069;28;20183;-64
2021/12/08 11:29:17;;;;;;;6.77;6.33;;;7.80;99.90;;;;;;5030581;28;20192;-65
2021/12/08 11:32:01;;;;;;;7.33;6.77;;;7.80;99.90;;;;;;5043850;28;20187;-67
2021/12/08 11:34:42;;;;;;;7.63;6.60;;;7.80;99.90;;;;;;5050585;28;20178;-67
2021/12/08 11:37:15;;;;;;;6.70;6.30;;;7.80;99.90;;;;;;5015537;28;20202;-65
2021/12/08 11:39:48;;;;;;;7.07;6.37;;;7.80;99.90;;;;;;5015608;28;20233;-64
2021/12/08 11:42:18;;;;;;;7.33;6.63;;;7.90;99.90;;;;;;5051290;28;20260;-66
2021/12/08 11:44:47;;;;;;;7.03;6.43;;;7.90;99.90;;;;;;5054076;28;20181;-64
2021/12/08 11:47:15;;;;;;;6.70;6.30;;;8.00;99.90;;;;;;5019509;28;20237;-64
2021/12/08 11:49:48;;;;;;;6.97;6.50;;;8.10;99.90;;;;;;5046503;28;20183;-66
2021/12/08 11:52:19;;;;;;;7.47;7.00;;;8.10;99.90;;;;;;5053809;28;20179;-66
2021/12/08 11:54:52;;;;;;;7.73;7.30;;;8.10;99.90;;;;;;5041419;28;20186;-65
2021/12/08 11:57:22;;;;;;;6.90;6.40;;;8.10;99.90;;;;;;5034054;28;20199;-65
2021/12/08 12:00:04;;;;;;;6.77;6.30;;;8.10;99.90;;;;;;5046020;28;20652;-65
2021/12/08 12:02:40;;;;;;;6.47;6.07;;;8.10;99.90;;;;;;5053614;28;20517;-66
2021/12/08 12:05:11;;;;;;;6.53;6.13;;;8.00;99.90;;;;;;5039207;28;20190;-65
2021/12/08 12:07:39;;;;;;;7.77;6.80;;;8.00;99.90;;;;;;5033943;28;20201;-64
2021/12/08 12:10:16;;;;;;;6.70;6.40;;;8.00;99.90;;;;;;5046967;28;20187;-66
2021/12/08 12:12:42;;;;;;;7.80;7.40;;;7.90;99.90;;;;;;5053253;28;20182;-65
2021/12/08 12:15:11;;;;;;;8.03;7.53;;;7.90;99.90;;;;;;5043255;28;20193;-65
2021/12/08 12:17:37;;;;;;;7.70;7.20;;;7.90;99.90;;;;;;5033570;28;20281;-65
2021/12/08 12:20:16;;;;;;;8.07;7.30;;;7.90;99.90;;;;;;5034721;28;20183;-64
2021/12/08 12:23:00;;;;;;;7.27;6.73;;;7.90;99.90;;;;;;5033387;28;20175;-64
2021/12/08 12:25:41;;;;;;;8.13;7.43;;;8.00;99.90;;;;;;5032767;28;20702;-63
2021/12/08 12:28:43;;;;;;;7.40;6.87;;;8.10;99.90;;;;;;5053134;28;20675;-64
2021/12/08 12:31:30;;;;;;;7.13;6.67;;;8.10;99.90;;;;;;5013635;28;20194;-65
2021/12/08 12:33:56;;;;;;;6.97;6.40;;;8.20;99.90;;;;;;5020783;28;20185;-64
2021/12/08 12:36:32;;;;;;;9.10;6.67;;;8.30;99.90;;;;;;5053213;28;20206;-65
2021/12/08 12:39:11;;;;;;;6.67;6.27;;;8.40;99.90;;;;;;5049334;28;20215;-65
2021/12/08 12:41:37;;;;;;;6.23;5.77;;;8.50;99.90;;;;;;5033286;28;20175;-67
2021/12/08 12:44:15;;;;;;;6.87;6.40;;;8.50;99.90;;;;;;5036017;28;20220;-67
2021/12/08 12:47:08;;;;;;;8.33;7.70;;;8.40;99.90;;;;;;5053043;28;20179;-65
2021/12/08 12:49:34;;;;;;;7.23;6.87;;;8.20;99.90;;;;;;5052738;28;20182;-65
2021/12/08 12:52:12;;;;;;;7.83;7.13;;;8.20;99.90;;;;;;5052644;28;20630;-64
2021/12/08 12:54:42;;;;;;;10.50;9.43;;;8.10;99.90;;;;;;5032872;28;20191;-65
2021/12/08 12:57:09;;;;;;;7.70;7.23;;;8.00;99.90;;;;;;5032877;28;20199;-65
2021/12/08 12:59:44;;;;;;;8.77;8.07;;;8.00;99.90;;;;;;5051705;28;20190;-67
2021/12/08 13:02:25;;;;;;;9.73;8.97;;;8.00;99.90;;;;;;5053413;28;20201;-64
2021/12/08 13:05:12;;;;;;;8.97;8.37;;;8.00;99.90;;;;;;5022370;28;20186;-65
2021/12/08 13:07:54;;;;;;;8.80;8.10;;;8.10;99.90;;;;;;5050808;28;20614;-65
2021/12/08 13:10:28;;;;;;;8.60;8.10;;;8.10;99.90;;;;;;5032788;28;20266;-64
2021/12/08 13:13:09;;;;;;;8.40;7.93;;;8.10;99.90;;;;;;5035799;28;20644;-65
2021/12/08 13:15:34;;;;;;;8.90;8.40;;;8.10;99.90;;;;;;5051369;28;20232;-65
2021/12/08 13:18:12;;;;;;;7.83;7.43;;;8.10;99.90;;;;;;5032245;28;20234;-65
2021/12/08 13:20:45;;;;;;;8.80;6.70;;;8.10;99.90;;;;;;5033108;28;20194;-68
2021/12/08 13:23:13;;;;;;;6.40;6.10;;;8.10;99.90;;;;;;5033719;28;20550;-65
2021/12/08 13:28:09;;;;;;;6.27;5.87;;;8.20;99.90;;;;;;5032153;28;20207;-66
2021/12/08 13:30:43;;;;;;;6.53;6.13;;;8.20;99.90;;;;;;5014687;28;20546;-65
2021/12/08 13:33:27;;;;;;;7.83;6.27;;;8.20;99.90;;;;;;5031349;28;20179;-64
2021/12/08 13:35:53;;;;;;;7.33;6.93;;;8.30;99.90;;;;;;5033170;28;20573;-66
2021/12/08 13:38:20;;;;;;;7.23;6.73;;;8.30;99.90;;;;;;5051966;28;20229;-65
2021/12/08 13:40:55;;;;;;;6.43;6.03;;;8.40;99.90;;;;;;5050501;28;20170;-67
2021/12/08 13:43:36;;;;;;;6.30;5.90;;;8.50;99.90;;;;;;5012242;28;20168;-66
2021/12/08 13:46:03;;;;;;;6.37;6.00;;;8.60;99.90;;;;;;5032144;28;20179;-64
2021/12/08 13:48:29;;;;;;;6.93;5.90;;;8.60;99.90;;;;;;5031880;28;20249;-65
2021/12/08 13:51:17;;;;;;;6.30;5.90;;;8.60;99.90;;;;;;5043894;28;20179;-67
2021/12/08 13:53:43;;;;;;;6.83;6.40;;;8.60;99.90;;;;;;5030639;28;20536;-65
2021/12/08 13:56:09;;;;;;;6.00;5.60;;;8.50;99.90;;;;;;5031681;28;20174;-66
2021/12/08 13:58:39;;;;;;;6.87;6.10;;;8.40;99.90;;;;;;5048595;28;20289;-67
2021/12/08 14:01:13;;;;;;;7.93;6.67;;;8.20;99.90;;;;;;5049661;28;20178;-65
2021/12/08 14:03:47;;;;;;;6.57;5.90;;;8.20;99.90;;;;;;5033754;28;20199;-64
2021/12/08 14:06:13;;;;;;;6.83;6.43;;;8.10;99.90;;;;;;5031648;28;20171;-67
2021/12/08 14:08:45;;;;;;;6.20;5.90;;;8.00;99.90;;;;;;5048224;28;20265;-65